Time;durP1;ratioP1;P1;durP2;ratioP2;P2;SDS_P1;SDS_P2;PMS_P1;PMS_P2;Temp;Humidity;BMP_temperature;BMP_pressure;BME280_temperature;BME280_humidity;BME280_pressure;Samples;Min_cycle;Max_cycle;Signal;HPM_P1;HPM_P2
2023/07/14 00:00:16;;;;;;;3.67;3.40;;;;;;;16.20;100.00;97232.44;5013271;28;20307;-62
2023/07/14 00:02:45;;;;;;;3.73;3.43;;;;;;;16.08;100.00;97229.66;5015709;28;20888;-62
2023/07/14 00:05:17;;;;;;;3.83;3.50;;;;;;;16.13;100.00;97229.84;5015995;28;20311;-64
2023/07/14 00:07:50;;;;;;;4.30;3.90;;;;;;;16.13;100.00;97224.50;5017203;28;20626;-60
2023/07/14 00:10:21;;;;;;;4.07;3.87;;;;;;;16.15;100.00;97229.59;5011416;28;20228;-60
2023/07/14 00:12:51;;;;;;;5.17;3.60;;;;;;;16.17;100.00;97228.34;5015088;28;20223;-61
2023/07/14 00:15:20;;;;;;;3.90;3.60;;;;;;;16.18;100.00;97223.81;5010264;28;20316;-63
2023/07/14 00:17:49;;;;;;;3.17;2.97;;;;;;;16.19;100.00;97220.94;5015525;28;20291;-62
2023/07/14 00:20:24;;;;;;;4.00;3.70;;;;;;;16.22;100.00;97226.88;5010140;28;20288;-62
2023/07/14 00:22:52;;;;;;;4.17;3.87;;;;;;;16.23;100.00;97226.63;5016729;28;20219;-66
2023/07/14 00:25:22;;;;;;;4.20;3.90;;;;;;;16.20;100.00;97230.59;5011242;28;20771;-61
2023/07/14 00:27:51;;;;;;;4.13;3.47;;;;;;;16.23;100.00;97225.84;5017243;28;20208;-62
2023/07/14 00:30:21;;;;;;;4.07;3.67;;;;;;;16.24;100.00;97219.47;5013173;28;20923;-63
2023/07/14 00:32:50;;;;;;;3.60;3.40;;;;;;;16.23;100.00;97232.00;5017756;28;20292;-62
2023/07/14 00:35:20;;;;;;;4.17;3.87;;;;;;;16.21;100.00;97228.72;5013084;28;20234;-62
2023/07/14 00:37:49;;;;;;;4.70;4.20;;;;;;;16.24;100.00;97224.81;5016015;28;20812;-61
2023/07/14 00:40:18;;;;;;;3.90;3.67;;;;;;;16.20;100.00;97225.25;5011456;28;20816;-62
2023/07/14 00:42:47;;;;;;;3.53;3.33;;;;;;;16.19;100.00;97223.59;5014896;28;20220;-64
2023/07/14 00:45:20;;;;;;;3.63;3.40;;;;;;;16.23;100.00;97225.84;5014286;28;20220;-63
2023/07/14 00:47:52;;;;;;;5.30;4.40;;;;;;;16.24;100.00;97225.59;5016759;28;20315;-63
2023/07/14 00:50:26;;;;;;;3.73;3.40;;;;;;;16.10;100.00;97224.94;5011946;28;20200;-65
2023/07/14 00:52:54;;;;;;;3.70;3.47;;;;;;;16.03;100.00;97221.47;5016059;28;20772;-62
2023/07/14 00:55:31;;;;;;;3.80;3.50;;;;;;;15.97;100.00;97222.34;5014218;28;20315;-62
2023/07/14 00:57:59;;;;;;;4.13;3.83;;;;;;;15.95;100.00;97224.41;5013430;28;20306;-63
2023/07/14 01:00:30;;;;;;;5.40;3.53;;;;;;;15.90;100.00;97225.88;5012991;28;20274;-62
2023/07/14 01:02:58;;;;;;;4.33;3.93;;;;;;;15.93;100.00;97227.31;5016688;28;20228;-58
2023/07/14 01:05:27;;;;;;;4.27;3.70;;;;;;;15.78;100.00;97216.91;5013991;28;20220;-59
2023/07/14 01:07:55;;;;;;;4.47;3.67;;;;;;;15.76;100.00;97210.97;5015535;28;20200;-60
2023/07/14 01:10:27;;;;;;;7.33;3.80;;;;;;;15.77;100.00;97208.06;5011165;28;21042;-62
2023/07/14 01:12:58;;;;;;;5.63;4.13;;;;;;;15.78;100.00;97215.03;5013996;28;20239;-63
2023/07/14 01:15:26;;;;;;;5.53;4.27;;;;;;;15.75;100.00;97215.47;5014059;28;20307;-62
2023/07/14 01:17:55;;;;;;;5.00;4.53;;;;;;;15.77;100.00;97221.44;5014868;28;20998;-61
2023/07/14 01:20:23;;;;;;;4.30;4.00;;;;;;;15.78;100.00;97217.72;5009294;28;20220;-61
2023/07/14 01:23:03;;;;;;;4.57;4.20;;;;;;;15.74;100.00;97213.03;5015698;28;20599;-62
2023/07/14 01:25:42;;;;;;;4.53;4.33;;;;;;;15.72;100.00;97209.75;5011655;28;20668;-60
2023/07/14 01:28:13;;;;;;;3.93;3.70;;;;;;;15.67;100.00;97210.41;5013441;28;20731;-63
2023/07/14 01:30:41;;;;;;;6.27;4.27;;;;;;;15.68;100.00;97217.38;5016565;28;20864;-64
2023/07/14 01:33:13;;;;;;;4.27;3.97;;;;;;;15.67;100.00;97220.25;5018804;28;20247;-63
2023/07/14 01:35:44;;;;;;;4.50;4.20;;;;;;;15.72;100.00;97217.75;5016045;28;20252;-61
2023/07/14 01:38:11;;;;;;;5.13;4.83;;;;;;;15.72;100.00;97220.44;5017450;28;20255;-62
2023/07/14 01:40:40;;;;;;;5.20;4.70;;;;;;;15.73;100.00;97222.09;5017992;28;20209;-63
2023/07/14 01:43:12;;;;;;;4.00;3.73;;;;;;;15.75;100.00;97215.47;5013493;28;20773;-63
2023/07/14 01:45:46;;;;;;;4.10;3.87;;;;;;;15.72;100.00;97207.91;5014630;28;20213;-63
2023/07/14 01:48:17;;;;;;;4.10;3.77;;;;;;;15.70;100.00;97206.47;5016596;28;20291;-64
2023/07/14 01:50:46;;;;;;;4.97;3.97;;;;;;;15.65;100.00;97206.31;5017214;28;20204;-62
2023/07/14 01:53:18;;;;;;;4.47;4.00;;;;;;;15.54;100.00;97199.81;5016747;28;20687;-61
2023/07/14 01:55:46;;;;;;;4.60;4.17;;;;;;;15.42;100.00;97205.03;5018069;28;20663;-64
2023/07/14 01:58:20;;;;;;;4.53;4.13;;;;;;;15.31;100.00;97204.66;5016093;28;20216;-63
2023/07/14 02:00:49;;;;;;;3.97;3.67;;;;;;;15.27;100.00;97207.97;5018945;28;20291;-62
2023/07/14 02:03:20;;;;;;;4.30;3.90;;;;;;;15.20;100.00;97213.34;5015627;28;20233;-65
2023/07/14 02:05:48;;;;;;;4.73;4.37;;;;;;;15.12;100.00;97205.59;5018080;28;20220;-63
2023/07/14 02:08:23;;;;;;;4.00;3.60;;;;;;;15.07;100.00;97205.41;5020011;28;20649;-61
2023/07/14 02:10:51;;;;;;;4.67;4.27;;;;;;;15.05;100.00;97209.09;5016208;28;20677;-63
2023/07/14 02:13:20;;;;;;;4.03;3.73;;;;;;;15.05;100.00;97208.28;5019206;28;20288;-61
2023/07/14 02:15:47;;;;;;;4.47;4.17;;;;;;;15.05;100.00;97209.09;5016878;28;20334;-64
2023/07/14 02:18:19;;;;;;;4.07;3.77;;;;;;;15.11;100.00;97207.44;5012739;28;20295;-64
2023/07/14 02:20:47;;;;;;;5.20;4.00;;;;;;;15.12;100.00;97206.41;5015320;28;20205;-64
2023/07/14 02:23:19;;;;;;;4.80;4.50;;;;;;;15.16;100.00;97212.97;5018937;28;20224;-62
2023/07/14 02:25:49;;;;;;;4.67;4.20;;;;;;;15.12;100.00;97216.25;5017760;28;20734;-61
2023/07/14 02:28:16;;;;;;;4.47;4.27;;;;;;;15.18;100.00;97226.09;5010434;28;20224;-62
2023/07/14 02:30:50;;;;;;;4.60;4.20;;;;;;;15.13;100.00;97223.25;5017155;28;20271;-63
2023/07/14 02:33:26;;;;;;;4.10;3.80;;;;;;;15.10;100.00;97229.81;5017052;28;20774;-64
2023/07/14 02:35:59;;;;;;;4.60;3.70;;;;;;;15.14;100.00;97224.88;5015237;28;20282;-61
2023/07/14 02:38:27;;;;;;;5.17;3.97;;;;;;;15.03;100.00;97221.84;5017635;28;20303;-62
2023/07/14 02:41:03;;;;;;;3.97;3.67;;;;;;;14.92;100.00;97230.47;5017301;28;20303;-62
2023/07/14 02:43:31;;;;;;;4.83;4.33;;;;;;;14.75;100.00;97220.28;5012680;28;20287;-63
2023/07/14 02:46:09;;;;;;;3.73;3.53;;;;;;;14.61;100.00;97232.81;5016461;28;20259;-62
2023/07/14 02:48:40;;;;;;;4.57;4.27;;;;;;;14.49;100.00;97234.47;5015675;28;20206;-62
2023/07/14 02:51:08;;;;;;;5.17;3.60;;;;;;;14.38;100.00;97225.28;5011399;28;20292;-63
2023/07/14 02:53:36;;;;;;;3.73;3.47;;;;;;;14.23;100.00;97224.69;5018078;28;20328;-62
2023/07/14 02:56:05;;;;;;;4.40;3.67;;;;;;;14.20;100.00;97233.91;5015693;28;20316;-64
2023/07/14 02:58:33;;;;;;;3.70;3.50;;;;;;;14.09;100.00;97229.19;5014269;28;20223;-62
2023/07/14 03:01:03;;;;;;;4.13;3.80;;;;;;;14.04;100.00;97241.28;5012827;28;20210;-59
2023/07/14 03:03:33;;;;;;;5.80;4.93;;;;;;;13.96;100.00;97241.47;5014371;28;20232;-62
2023/07/14 03:06:01;;;;;;;5.30;4.40;;;;;;;13.92;100.00;97236.78;5014460;28;20279;-63
2023/07/14 03:08:29;;;;;;;4.40;4.00;;;;;;;13.89;100.00;97244.16;5017207;28;20211;-62
2023/07/14 03:10:58;;;;;;;4.03;3.83;;;;;;;13.83;100.00;97238.81;5018715;28;20287;-62
2023/07/14 03:13:26;;;;;;;4.67;4.30;;;;;;;13.82;100.00;97235.31;5019503;28;20220;-63
2023/07/14 03:15:54;;;;;;;4.93;4.63;;;;;;;13.77;100.00;97235.09;5017957;28;20270;-63
2023/07/14 03:18:23;;;;;;;6.17;4.43;;;;;;;13.73;100.00;97242.69;5017098;28;20208;-64
2023/07/14 03:20:55;;;;;;;5.10;4.77;;;;;;;13.73;100.00;97239.19;5015541;28;20295;-62
2023/07/14 03:23:23;;;;;;;4.00;3.80;;;;;;;13.58;100.00;97220.75;5016652;28;20904;-62
2023/07/14 03:25:54;;;;;;;4.83;4.43;;;;;;;13.63;100.00;97236.91;5017826;28;20310;-64
2023/07/14 03:28:21;;;;;;;4.83;4.30;;;;;;;13.58;100.00;97229.56;5014865;28;20204;-65
2023/07/14 03:30:49;;;;;;;5.33;4.93;;;;;;;13.58;100.00;97224.22;5017518;28;20900;-64
2023/07/14 03:33:18;;;;;;;4.80;4.40;;;;;;;13.57;100.00;97230.56;5013480;28;20278;-65
2023/07/14 03:35:47;;;;;;;5.07;4.70;;;;;;;13.62;100.00;97223.81;5014787;28;20232;-64
2023/07/14 03:38:14;;;;;;;4.90;4.50;;;;;;;13.59;100.00;97227.69;5017710;28;20712;-65
2023/07/14 03:40:42;;;;;;;4.70;4.30;;;;;;;13.59;100.00;97228.53;5018492;28;20299;-65
2023/07/14 03:43:09;;;;;;;4.87;4.47;;;;;;;13.61;100.00;97223.00;5017376;28;20657;-63
2023/07/14 03:45:37;;;;;;;4.80;4.40;;;;;;;13.62;100.00;97219.31;5015351;28;20270;-63
2023/07/14 03:48:05;;;;;;;5.73;4.50;;;;;;;13.64;100.00;97221.78;5016915;28;20228;-61
2023/07/14 03:50:35;;;;;;;4.37;4.03;;;;;;;13.59;100.00;97215.22;5011121;28;20215;-62
2023/07/14 03:53:04;;;;;;;4.90;4.50;;;;;;;13.62;100.00;97219.31;5014334;28;20236;-63
2023/07/14 03:55:32;;;;;;;4.53;4.27;;;;;;;13.62;100.00;97221.97;5016901;28;20229;-64
2023/07/14 03:58:00;;;;;;;4.00;3.70;;;;;;;13.61;100.00;97217.66;5015697;28;20286;-62
2023/07/14 04:00:31;;;;;;;4.17;3.90;;;;;;;13.67;100.00;97221.38;5007886;28;20228;-63
2023/07/14 04:02:59;;;;;;;4.30;4.10;;;;;;;13.72;100.00;97209.09;5011596;28;20211;-62
2023/07/14 04:05:27;;;;;;;4.57;4.20;;;;;;;13.76;100.00;97209.50;5013212;28;20247;-65
2023/07/14 04:07:54;;;;;;;4.70;4.30;;;;;;;13.85;100.00;97207.47;5016557;28;20259;-62
2023/07/14 04:10:23;;;;;;;4.40;4.00;;;;;;;13.91;100.00;97206.63;5012199;28;20204;-63
2023/07/14 04:12:51;;;;;;;4.17;3.80;;;;;;;14.02;100.00;97199.88;5017969;28;20243;-64
2023/07/14 04:15:21;;;;;;;4.57;4.17;;;;;;;14.12;100.00;97202.94;5014917;28;20221;-63
2023/07/14 04:17:49;;;;;;;4.63;3.90;;;;;;;14.28;100.00;97209.69;5013476;28;20219;-63
2023/07/14 04:20:17;;;;;;;4.73;4.43;;;;;;;14.44;100.00;97204.97;5009297;28;20303;-62
2023/07/14 04:22:45;;;;;;;4.67;4.27;;;;;;;14.50;100.00;97204.13;5005503;28;20246;-65
2023/07/14 04:25:12;;;;;;;4.73;4.43;;;;;;;14.64;100.00;97199.59;5017577;28;20228;-62
2023/07/14 04:27:41;;;;;;;4.70;4.40;;;;;;;14.67;100.00;97193.84;5011790;28;20204;-63
2023/07/14 04:30:09;;;;;;;4.63;4.10;;;;;;;14.66;100.00;97196.69;5014130;28;20327;-62
2023/07/14 04:32:37;;;;;;;4.93;4.50;;;;;;;14.66;100.00;97191.38;5011600;28;20872;-62
2023/07/14 04:35:06;;;;;;;4.20;3.90;;;;;;;14.65;100.00;97190.56;5013235;28;20928;-62
2023/07/14 04:37:34;;;;;;;4.70;4.40;;;;;;;14.68;100.00;97197.31;5016383;28;20219;-63
2023/07/14 04:40:04;;;;;;;4.30;4.00;;;;;;;14.72;100.00;97194.03;5018712;28;20282;-63
2023/07/14 04:42:31;;;;;;;4.33;4.07;;;;;;;14.75;100.00;97198.13;5014507;28;20235;-62
2023/07/14 04:45:00;;;;;;;5.17;4.73;;;;;;;14.77;100.00;97190.72;5011521;28;20576;-65
2023/07/14 04:47:28;;;;;;;4.30;3.93;;;;;;;14.82;100.00;97195.44;5016101;28;20210;-62
2023/07/14 04:49:55;;;;;;;4.93;4.47;;;;;;;14.94;100.00;97191.06;5011724;28;20329;-59
2023/07/14 04:52:23;;;;;;;4.20;3.90;;;;;;;15.03;100.00;97192.50;5010046;28;20300;-63
2023/07/14 04:54:51;;;;;;;4.60;4.20;;;;;;;15.13;100.00;97193.88;5010179;28;20224;-63
2023/07/14 04:57:19;;;;;;;5.40;4.93;;;;;;;15.23;100.00;97188.09;5012682;28;20213;-63
2023/07/14 04:59:46;;;;;;;4.37;3.97;;;;;;;15.29;100.00;97189.91;5012175;28;20247;-63
2023/07/14 05:02:15;;;;;;;5.33;3.90;;;;;;;15.46;100.00;97195.56;5014215;28;20752;-63
2023/07/14 05:04:43;;;;;;;4.37;4.07;;;;;;;15.72;100.00;97193.72;5009849;28;20236;-63
2023/07/14 05:07:27;;;;;;;4.33;4.03;;;;;;;16.18;100.00;97203.25;5014219;28;20883;-63
2023/07/14 05:09:55;;;;;;;4.50;4.00;;;;;;;16.43;100.00;97205.06;5017341;28;20224;-65
2023/07/14 05:12:22;;;;;;;5.67;4.13;;;;;;;16.61;100.00;97195.44;5014042;28;20204;-66
2023/07/14 05:14:50;;;;;;;4.80;4.27;;;;;;;16.65;100.00;97196.63;5018778;28;20432;-63
2023/07/14 05:17:19;;;;;;;4.00;3.80;;;;;;;16.55;100.00;97197.13;5015843;28;20807;-64
2023/07/14 05:19:46;;;;;;;4.23;3.83;;;;;;;16.69;100.00;97202.34;5015455;28;20202;-63
2023/07/14 05:22:14;;;;;;;4.27;4.07;;;;;;;16.85;100.00;97195.56;5019035;28;20212;-64
2023/07/14 05:24:41;;;;;;;4.13;3.73;;;;;;;17.05;100.00;97198.84;5017051;28;20266;-63
2023/07/14 05:27:09;;;;;;;4.13;3.83;;;;;;;17.17;100.00;97198.09;5015550;28;20291;-66
2023/07/14 05:29:36;;;;;;;5.77;3.70;;;;;;;17.28;100.00;97194.66;5018272;28;20295;-63
2023/07/14 05:32:05;;;;;;;4.17;3.87;;;;;;;17.27;100.00;97189.53;5018169;28;20259;-63
2023/07/14 05:34:34;;;;;;;4.07;3.67;;;;;;;17.33;100.00;97186.75;5014044;28;20228;-66
2023/07/14 05:37:02;;;;;;;3.97;3.57;;;;;;;17.52;100.00;97193.94;5013661;28;20291;-64
2023/07/14 05:39:30;;;;;;;4.07;3.87;;;;;;;17.77;100.00;97189.19;5021040;28;20196;-63
2023/07/14 05:41:59;;;;;;;5.20;4.17;;;;;;;17.75;100.00;97187.81;5016374;28;20250;-65
2023/07/14 05:44:26;;;;;;;3.53;3.33;;;;;;;17.85;100.00;97187.25;5012658;28;20314;-64
2023/07/14 05:46:54;;;;;;;3.53;3.17;;;;;;;17.77;100.00;97186.50;5013872;28;20233;-65
2023/07/14 05:49:22;;;;;;;4.17;3.87;;;;;;;17.74;100.00;97183.50;5014121;28;20204;-66
2023/07/14 05:51:52;;;;;;;4.87;4.43;;;;;;;17.90;100.00;97190.84;5015501;28;20654;-63
2023/07/14 05:54:21;;;;;;;3.97;3.77;;;;;;;18.04;100.00;97196.84;5016825;28;20228;-65
2023/07/14 05:56:49;;;;;;;5.10;4.70;;;;;;;18.04;100.00;97194.16;5018365;28;20359;-65
2023/07/14 05:59:17;;;;;;;5.77;4.70;;;;;;;18.00;100.00;97192.97;5014729;28;20582;-64
2023/07/14 06:01:46;;;;;;;4.70;4.37;;;;;;;17.94;100.00;97194.69;5013229;28;20801;-64
2023/07/14 06:04:14;;;;;;;4.67;4.00;;;;;;;18.12;100.00;97193.00;5017106;28;20338;-63
2023/07/14 06:06:42;;;;;;;5.00;4.53;;;;;;;18.04;100.00;97199.53;5013321;28;20282;-64
2023/07/14 06:09:13;;;;;;;5.63;4.57;;;;;;;17.97;100.00;97201.47;5015842;28;20591;-63
2023/07/14 06:11:41;;;;;;;9.37;4.17;;;;;;;18.17;100.00;97205.69;5015512;28;20235;-64
2023/07/14 06:14:09;;;;;;;4.90;3.60;;;;;;;18.37;100.00;97195.44;5009341;28;20283;-62
2023/07/14 06:16:37;;;;;;;4.50;4.10;;;;;;;18.56;100.00;97200.69;5015219;28;20291;-64
2023/07/14 06:19:04;;;;;;;5.73;4.60;;;;;;;18.62;100.00;97193.56;5012996;28;20213;-66
2023/07/14 06:21:32;;;;;;;4.87;4.53;;;;;;;19.00;100.00;97191.41;5015606;28;20208;-65
2023/07/14 06:24:00;;;;;;;4.63;3.83;;;;;;;18.98;100.00;97191.66;5015007;28;20925;-64
2023/07/14 06:26:29;;;;;;;4.83;4.43;;;;;;;18.90;100.00;97192.00;5017100;28;20248;-64
2023/07/14 06:28:56;;;;;;;5.37;4.80;;;;;;;19.07;100.00;97179.47;5010905;28;20335;-65
2023/07/14 06:31:24;;;;;;;5.00;4.60;;;;;;;19.07;100.00;97173.31;5019812;28;20224;-64
2023/07/14 06:33:51;;;;;;;5.67;4.57;;;;;;;19.30;100.00;97180.44;5012482;28;20295;-64
2023/07/14 06:36:19;;;;;;;6.97;5.07;;;;;;;19.18;100.00;97187.75;5014808;28;20306;-65
2023/07/14 06:38:47;;;;;;;7.93;4.97;;;;;;;19.27;100.00;97186.31;5013012;28;20853;-66
2023/07/14 06:41:14;;;;;;;5.60;4.57;;;;;;;19.42;100.00;97187.63;5016642;28;20221;-64
2023/07/14 06:43:43;;;;;;;5.83;4.17;;;;;;;19.49;100.00;97175.69;5011724;28;20679;-65
2023/07/14 06:46:11;;;;;;;5.77;4.60;;;;;;;19.41;100.00;97175.25;5017836;28;20228;-64
2023/07/14 06:48:39;;;;;;;4.63;4.23;;;;;;;19.35;100.00;97177.06;5014823;28;20235;-66
2023/07/14 06:51:07;;;;;;;4.97;4.50;;;;;;;19.41;100.00;97165.34;5013050;28;20208;-67
2023/07/14 06:53:34;;;;;;;8.67;4.47;;;;;;;19.46;100.00;97164.59;5015345;28;20215;-64
2023/07/14 06:56:02;;;;;;;4.30;3.97;;;;;;;19.44;100.00;97164.84;5015486;28;20247;-65
2023/07/14 06:58:30;;;;;;;4.57;4.27;;;;;;;19.60;100.00;97159.72;5015048;28;20300;-65
2023/07/14 07:00:58;;;;;;;7.50;4.80;;;;;;;19.94;100.00;97167.84;5011083;28;20239;-66
2023/07/14 07:03:26;;;;;;;5.13;4.20;;;;;;;20.02;100.00;97172.78;5013911;28;20295;-66
2023/07/14 07:05:55;;;;;;;5.70;4.03;;;;;;;20.05;100.00;97161.53;5015139;28;20252;-64
2023/07/14 07:08:23;;;;;;;3.90;3.60;;;;;;;20.64;100.00;97159.38;5016946;28;20212;-64
2023/07/14 07:10:52;;;;;;;3.70;2.90;;;;;;;20.76;98.90;97165.50;5013752;28;20260;-68
2023/07/14 07:13:20;;;;;;;5.10;3.17;;;;;;;21.05;98.40;97162.63;5012467;28;20292;-65
2023/07/14 07:15:47;;;;;;;2.80;2.60;;;;;;;21.17;98.61;97154.38;5011735;28;20636;-64
2023/07/14 07:18:25;;;;;;;3.37;3.07;;;;;;;21.33;97.87;97155.34;5014288;28;20211;-65
2023/07/14 07:20:53;;;;;;;3.20;3.00;;;;;;;21.46;94.29;97158.72;5011668;28;20208;-67
2023/07/14 07:23:21;;;;;;;5.27;3.03;;;;;;;21.59;86.46;97161.00;5014404;28;20204;-65
2023/07/14 07:25:49;;;;;;;3.90;2.70;;;;;;;21.77;83.59;97154.44;5015236;28;20239;-66
2023/07/14 07:28:17;;;;;;;2.50;2.20;;;;;;;21.97;77.00;97161.88;5016206;28;20229;-66
2023/07/14 07:30:45;;;;;;;2.40;2.20;;;;;;;21.78;73.07;97161.47;5015504;28;20553;-65
2023/07/14 07:33:12;;;;;;;2.27;2.07;;;;;;;21.97;72.65;97161.03;5014366;28;20324;-67
2023/07/14 07:35:42;;;;;;;4.17;2.93;;;;;;;22.24;70.57;97157.47;5013072;28;20577;-67
2023/07/14 07:38:11;;;;;;;3.40;2.60;;;;;;;22.54;69.71;97159.56;5014444;28;20288;-66
2023/07/14 07:40:39;;;;;;;2.40;2.20;;;;;;;22.41;67.30;97154.59;5017302;28;20363;-65
2023/07/14 07:43:06;;;;;;;2.40;2.20;;;;;;;22.35;68.86;97153.78;5012480;28;20213;-66
2023/07/14 07:45:34;;;;;;;2.77;1.93;;;;;;;22.20;63.87;97157.19;5011795;28;20573;-65
2023/07/14 07:48:02;;;;;;;2.33;2.20;;;;;;;22.24;65.79;97147.50;5012426;28;20266;-65
2023/07/14 07:50:29;;;;;;;2.10;2.00;;;;;;;22.18;64.84;97145.84;5013303;28;20288;-65
2023/07/14 07:52:58;;;;;;;2.50;2.30;;;;;;;22.38;71.39;97141.63;5014509;28;20303;-65
2023/07/14 07:55:26;;;;;;;5.03;2.40;;;;;;;22.88;68.23;97149.44;5015162;28;20216;-67
2023/07/14 07:57:55;;;;;;;2.20;2.10;;;;;;;23.15;63.20;97143.84;5013321;28;20766;-65
2023/07/14 08:00:22;;;;;;;2.50;2.30;;;;;;;23.33;63.37;97141.75;5012605;28;20212;-65
2023/07/14 08:02:51;;;;;;;2.23;2.03;;;;;;;22.87;61.68;97145.09;5012128;28;20583;-66
2023/07/14 08:05:20;;;;;;;3.03;2.70;;;;;;;22.93;61.39;97134.06;5014739;28;20290;-65
2023/07/14 08:07:47;;;;;;;2.90;2.70;;;;;;;22.97;60.89;97128.94;5009174;28;20255;-65
2023/07/14 08:10:16;;;;;;;2.17;2.00;;;;;;;23.20;59.37;97133.06;5013968;28;20211;-66
2023/07/14 08:12:44;;;;;;;2.97;2.20;;;;;;;23.26;60.36;97118.50;5013727;28;20227;-67
2023/07/14 08:15:12;;;;;;;3.03;2.10;;;;;;;23.40;59.99;97121.50;5013046;28;20231;-66
2023/07/14 08:17:54;;;;;;;2.17;1.77;;;;;;;23.25;58.22;97121.47;5014624;28;20247;-65
2023/07/14 08:20:22;;;;;;;2.03;1.93;;;;;;;22.68;60.71;97116.69;5010127;28;20204;-64
2023/07/14 08:22:49;;;;;;;2.37;2.27;;;;;;;22.80;62.18;97113.75;5011358;28;20212;-64
2023/07/14 08:25:21;;;;;;;2.10;1.90;;;;;;;22.92;59.85;97110.00;5014197;28;20224;-64
2023/07/14 08:27:48;;;;;;;2.23;2.13;;;;;;;23.03;63.27;97095.47;5013158;28;20234;-65
2023/07/14 08:30:16;;;;;;;3.40;2.40;;;;;;;23.12;61.35;97107.38;5014296;28;20255;-66
2023/07/14 08:32:44;;;;;;;2.47;2.27;;;;;;;23.12;61.44;97103.88;5034218;28;20211;-64
2023/07/14 08:35:12;;;;;;;2.23;2.13;;;;;;;23.20;61.49;97102.50;5032395;28;20243;-65
2023/07/14 08:37:39;;;;;;;5.13;4.73;;;;;;;23.06;60.71;97080.59;5037233;28;20239;-65
2023/07/14 08:40:10;;;;;;;5.07;2.87;;;;;;;23.60;58.04;97094.72;5035381;28;21587;-64
2023/07/14 08:42:46;;;;;;;2.30;2.07;;;;;;;23.96;56.80;97100.13;5034316;28;20294;-65
2023/07/14 08:45:25;;;;;;;2.87;2.30;;;;;;;24.09;56.91;97093.38;5038859;28;20219;-65
2023/07/14 08:48:00;;;;;;;3.17;2.23;;;;;;;24.23;56.75;97094.41;5040343;28;20331;-65
2023/07/14 08:50:30;;;;;;;2.13;2.03;;;;;;;24.35;53.59;97077.84;5036434;28;20210;-65
2023/07/14 08:53:03;;;;;;;2.07;1.87;;;;;;;24.38;53.75;97087.31;5038839;28;20235;-65
2023/07/14 08:55:34;;;;;;;3.07;2.47;;;;;;;24.24;52.71;97085.19;5037806;28;20226;-67
2023/07/14 08:58:07;;;;;;;2.60;1.87;;;;;;;24.06;53.31;97083.09;5036622;28;20207;-65
2023/07/14 09:00:37;;;;;;;2.30;2.20;;;;;;;23.82;50.65;97078.22;5038514;28;20818;-65
2023/07/14 09:03:09;;;;;;;2.03;1.90;;;;;;;23.73;51.78;97082.56;5036408;28;20753;-67
2023/07/14 09:05:40;;;;;;;2.00;1.90;;;;;;;23.81;51.88;97088.22;5038980;28;20274;-65
2023/07/14 09:08:10;;;;;;;2.33;2.23;;;;;;;23.97;53.27;97080.09;5035971;28;20338;-66
2023/07/14 09:10:48;;;;;;;3.30;2.30;;;;;;;23.94;54.57;97089.56;5040742;28;20215;-66
2023/07/14 09:13:26;;;;;;;2.30;2.10;;;;;;;24.12;51.98;97079.28;5037902;28;20250;-65
2023/07/14 09:15:54;;;;;;;2.60;2.30;;;;;;;23.96;54.56;97078.47;5036328;28;20219;-65
2023/07/14 09:18:33;;;;;;;2.60;2.27;;;;;;;24.34;52.43;97076.22;5039779;28;20198;-67
2023/07/14 09:21:09;;;;;;;2.30;2.13;;;;;;;24.32;54.26;97073.00;5035809;28;20283;-67
2023/07/14 09:23:51;;;;;;;2.10;1.90;;;;;;;24.06;52.15;97074.97;5038409;28;20298;-65
2023/07/14 09:26:25;;;;;;;2.53;2.30;;;;;;;23.97;53.70;97067.34;5024148;28;20741;-63
2023/07/14 09:28:56;;;;;;;2.50;2.30;;;;;;;24.03;53.53;97075.50;5036863;28;20764;-65
2023/07/14 09:31:37;;;;;;;3.90;2.00;;;;;;;23.69;49.52;97074.16;5039501;28;20253;-67
2023/07/14 09:34:12;;;;;;;1.87;1.77;;;;;;;23.46;49.98;97056.63;5031900;28;20208;-64
2023/07/14 09:36:40;;;;;;;2.77;2.33;;;;;;;23.76;52.81;97069.28;5037047;28;20203;-67
2023/07/14 09:39:16;;;;;;;2.33;2.23;;;;;;;23.91;52.65;97065.75;5036814;28;20222;-67
2023/07/14 09:41:46;;;;;;;1.83;1.73;;;;;;;24.01;48.47;97072.25;5038279;28;20210;-64
2023/07/14 09:44:17;;;;;;;2.00;1.80;;;;;;;24.32;46.91;97064.03;5035578;28;20204;-64
2023/07/14 09:46:47;;;;;;;2.87;2.07;;;;;;;24.38;48.32;97065.63;5036007;28;20335;-66
2023/07/14 09:49:24;;;;;;;2.20;2.00;;;;;;;24.43;49.41;97054.78;5035512;28;20266;-66
2023/07/14 09:52:03;;;;;;;3.13;1.90;;;;;;;24.49;47.55;97051.00;5038684;28;20207;-66
2023/07/14 09:54:31;;;;;;;2.30;2.10;;;;;;;24.76;50.79;97044.38;5030839;28;20874;-66
2023/07/14 09:57:03;;;;;;;3.70;1.93;;;;;;;24.73;48.88;97035.97;5035439;28;20203;-64
2023/07/14 09:59:32;;;;;;;1.80;1.70;;;;;;;24.57;47.00;97014.38;5036582;28;20295;-65
2023/07/14 10:02:01;;;;;;;6.30;5.20;;;;;;;24.41;46.95;97030.72;5036589;28;20258;-67
2023/07/14 10:04:30;;;;;;;2.07;1.97;;;;;;;24.47;47.55;97031.50;5036039;28;20246;-65
2023/07/14 10:07:22;;;;;;;2.00;1.90;;;;;;;24.41;48.22;97028.00;5036424;28;20208;-67
2023/07/14 10:09:57;;;;;;;2.33;1.80;;;;;;;24.39;50.12;97015.81;5034357;28;20204;-65
2023/07/14 10:12:24;;;;;;;2.20;1.97;;;;;;;24.42;48.85;97015.25;5036879;28;20253;-66
2023/07/14 10:14:54;;;;;;;3.10;2.13;;;;;;;24.60;50.65;97021.16;5037854;28;21667;-65
2023/07/14 10:17:23;;;;;;;3.07;1.93;;;;;;;24.97;51.32;97007.13;5035940;28;20192;-63
2023/07/14 10:19:51;;;;;;;2.10;1.90;;;;;;;24.97;50.17;97004.41;5034931;28;21644;-65
2023/07/14 10:22:20;;;;;;;2.27;1.87;;;;;;;24.92;49.42;97009.88;5037019;28;20212;-63
2023/07/14 10:24:56;;;;;;;4.67;2.33;;;;;;;24.99;52.48;96999.50;5040512;28;20258;-63
2023/07/14 10:27:26;;;;;;;2.30;2.20;;;;;;;24.97;48.12;96995.47;5036348;28;20246;-66
2023/07/14 10:30:11;;;;;;;2.37;2.17;;;;;;;25.00;50.52;96989.50;5038525;28;20253;-65
2023/07/14 10:32:42;;;;;;;2.80;2.60;;;;;;;24.94;48.48;96985.22;5039459;28;20224;-65
2023/07/14 10:35:13;;;;;;;3.27;2.20;;;;;;;25.21;51.80;96989.34;5033721;28;20223;-64
2023/07/14 10:37:43;;;;;;;4.40;2.17;;;;;;;25.04;47.06;96990.53;5032855;28;20650;-65
2023/07/14 10:40:14;;;;;;;2.23;2.03;;;;;;;25.06;48.38;96979.44;5038368;28;20242;-64
2023/07/14 10:42:57;;;;;;;2.47;1.80;;;;;;;25.42;51.73;96979.91;5036679;28;20286;-65
2023/07/14 10:45:28;;;;;;;3.50;2.23;;;;;;;25.43;50.93;96967.97;5034325;28;20257;-65
2023/07/14 10:47:59;;;;;;;2.30;2.20;;;;;;;25.77;50.63;96970.94;5039320;28;20969;-64
2023/07/14 10:50:33;;;;;;;2.30;2.10;;;;;;;25.98;51.35;96968.78;5037000;28;20205;-65
2023/07/14 10:53:07;;;;;;;4.90;2.17;;;;;;;26.14;50.76;96953.94;5035694;28;20235;-67
2023/07/14 10:55:37;;;;;;;2.53;2.40;;;;;;;26.04;46.72;96961.41;5035964;28;20218;-66
2023/07/14 10:58:10;;;;;;;2.20;2.10;;;;;;;25.85;47.27;96959.44;5035237;28;20254;-64
2023/07/14 11:00:51;;;;;;;2.20;2.10;;;;;;;25.88;48.06;96963.47;5037721;28;20212;-67
2023/07/14 11:03:26;;;;;;;2.63;2.00;;;;;;;25.95;48.32;96961.22;5036297;28;21870;-63
2023/07/14 11:05:55;;;;;;;2.33;2.23;;;;;;;26.27;48.82;96954.34;5034145;28;20226;-64
2023/07/14 11:08:24;;;;;;;2.40;2.30;;;;;;;26.04;46.93;96956.75;5034687;28;20323;-66
2023/07/14 11:10:59;;;;;;;2.37;2.00;;;;;;;25.51;48.07;96949.47;5035278;28;20575;-65
2023/07/14 11:13:37;;;;;;;3.93;2.50;;;;;;;25.12;48.67;96946.56;5034941;28;20200;-65
2023/07/14 11:16:10;;;;;;;2.30;2.03;;;;;;;25.59;47.12;96940.75;5031880;28;20315;-64
2023/07/14 11:18:43;;;;;;;2.10;2.00;;;;;;;25.85;47.14;96935.84;5034218;28;20889;-65
2023/07/14 11:21:23;;;;;;;3.00;2.33;;;;;;;25.99;47.09;96926.97;5031717;28;20294;-64
2023/07/14 11:23:55;;;;;;;2.03;1.90;;;;;;;26.48;46.62;96930.44;5038261;28;20235;-64
2023/07/14 11:26:28;;;;;;;4.47;2.17;;;;;;;26.41;46.28;96919.13;5032327;28;20838;-65
2023/07/14 11:29:04;;;;;;;2.10;2.00;;;;;;;26.86;45.95;96924.97;5033335;28;20220;-64
2023/07/14 11:31:35;;;;;;;5.53;2.30;;;;;;;26.79;43.83;96926.44;5029637;28;20548;-65
2023/07/14 11:34:16;;;;;;;2.47;1.90;;;;;;;27.23;43.90;96917.00;5033290;28;20197;-66
2023/07/14 11:36:52;;;;;;;2.47;2.00;;;;;;;27.43;43.34;96915.03;5034203;28;20203;-66
2023/07/14 11:39:26;;;;;;;2.30;1.90;;;;;;;27.63;43.01;96902.16;5046413;28;20326;-65
2023/07/14 11:41:54;;;;;;;2.50;1.97;;;;;;;27.84;41.38;96908.00;5055348;28;20318;-66